sensor_id;sensor_type;location;lat;lon;timestamp;pressure;altitude;pressure_sealevel;temperature;humidity
64292;BME280;50628;51.008;13.658;2023-08-24T00:00:50;100068.78;;;18.26;100.00
64292;BME280;50628;51.008;13.658;2023-08-24T00:05:53;100064.84;;;18.05;100.00
64292;BME280;50628;51.008;13.658;2023-08-24T00:10:55;100072.75;;;18.05;100.00
64292;BME280;50628;51.008;13.658;2023-08-24T00:15:57;100077.69;;;18.08;100.00
64292;BME280;50628;51.008;13.658;2023-08-24T00:21:00;100074.88;;;17.93;100.00
64292;BME280;50628;51.008;13.658;2023-08-24T00:26:03;100068.31;;;18.06;100.00
64292;BME280;50628;51.008;13.658;2023-08-24T00:31:04;100061.03;;;17.91;100.00
64292;BME280;50628;51.008;13.658;2023-08-24T00:36:08;100064.19;;;17.95;100.00
64292;BME280;50628;51.008;13.658;2023-08-24T00:41:10;100075.16;;;17.74;100.00
64292;BME280;50628;51.008;13.658;2023-08-24T00:46:14;100074.16;;;17.67;100.00
64292;BME280;50628;51.008;13.658;2023-08-24T00:51:17;100069.03;;;17.65;100.00
64292;BME280;50628;51.008;13.658;2023-08-24T00:56:19;100074.16;;;17.67;100.00
64292;BME280;50628;51.008;13.658;2023-08-24T01:01:25;100073.81;;;17.70;100.00
64292;BME280;50628;51.008;13.658;2023-08-24T01:06:28;100063.44;;;17.68;100.00
64292;BME280;50628;51.008;13.658;2023-08-24T01:11:38;100069.69;;;17.59;100.00
64292;BME280;50628;51.008;13.658;2023-08-24T01:16:46;100055.34;;;17.53;100.00
64292;BME280;50628;51.008;13.658;2023-08-24T01:21:53;100052.19;;;17.34;100.00
64292;BME280;50628;51.008;13.658;2023-08-24T01:26:59;100045.34;;;17.49;100.00
64292;BME280;50628;51.008;13.658;2023-08-24T01:32:01;100046.31;;;17.48;100.00
64292;BME280;50628;51.008;13.658;2023-08-24T01:37:03;100049.53;;;17.34;100.00
64292;BME280;50628;51.008;13.658;2023-08-24T01:42:09;100049.19;;;17.28;100.00
64292;BME280;50628;51.008;13.658;2023-08-24T01:47:12;100056.59;;;17.25;100.00
64292;BME280;50628;51.008;13.658;2023-08-24T01:52:16;100046.88;;;17.17;100.00
64292;BME280;50628;51.008;13.658;2023-08-24T01:57:20;100054.75;;;17.09;100.00
64292;BME280;50628;51.008;13.658;2023-08-24T02:02:22;100051.09;;;17.02;100.00
64292;BME280;50628;51.008;13.658;2023-08-24T02:07:23;100044.00;;;17.02;100.00
64292;BME280;50628;51.008;13.658;2023-08-24T02:12:27;100043.06;;;17.03;100.00
64292;BME280;50628;51.008;13.658;2023-08-24T02:17:28;100043.06;;;17.12;100.00
64292;BME280;50628;51.008;13.658;2023-08-24T02:22:30;100044.16;;;17.01;100.00
64292;BME280;50628;51.008;13.658;2023-08-24T02:27:34;100041.97;;;16.88;100.00
64292;BME280;50628;51.008;13.658;2023-08-24T02:32:35;100042.03;;;16.96;100.00
64292;BME280;50628;51.008;13.658;2023-08-24T02:37:37;100036.47;;;16.73;100.00
64292;BME280;50628;51.008;13.658;2023-08-24T02:42:41;100038.63;;;16.78;100.00
64292;BME280;50628;51.008;13.658;2023-08-24T02:47:42;100037.88;;;16.67;100.00
64292;BME280;50628;51.008;13.658;2023-08-24T02:52:44;100040.06;;;16.72;100.00
64292;BME280;50628;51.008;13.658;2023-08-24T02:57:47;100046.91;;;16.65;100.00
64292;BME280;50628;51.008;13.658;2023-08-24T03:02:50;100037.53;;;16.62;100.00
64292;BME280;50628;51.008;13.658;2023-08-24T03:07:52;100043.56;;;16.55;100.00
64292;BME280;50628;51.008;13.658;2023-08-24T03:12:56;100044.13;;;16.66;100.00
64292;BME280;50628;51.008;13.658;2023-08-24T03:17:58;100037.28;;;16.48;100.00
64292;BME280;50628;51.008;13.658;2023-08-24T03:23:00;100031.31;;;16.37;100.00
64292;BME280;50628;51.008;13.658;2023-08-24T03:28:06;100030.47;;;16.37;100.00
64292;BME280;50628;51.008;13.658;2023-08-24T03:33:08;100031.38;;;16.46;100.00
64292;BME280;50628;51.008;13.658;2023-08-24T03:38:10;100036.63;;;16.46;100.00
64292;BME280;50628;51.008;13.658;2023-08-24T03:43:14;100030.84;;;16.42;100.00
64292;BME280;50628;51.008;13.658;2023-08-24T03:48:15;100029.44;;;16.30;100.00
64292;BME280;50628;51.008;13.658;2023-08-24T03:53:17;100029.75;;;16.27;100.00
64292;BME280;50628;51.008;13.658;2023-08-24T03:58:22;100032.06;;;16.30;100.00
64292;BME280;50628;51.008;13.658;2023-08-24T04:03:26;100025.22;;;16.37;100.00
64292;BME280;50628;51.008;13.658;2023-08-24T04:08:28;100030.56;;;16.27;100.00
64292;BME280;50628;51.008;13.658;2023-08-24T04:13:31;100026.00;;;16.29;100.00
64292;BME280;50628;51.008;13.658;2023-08-24T04:18:33;100030.22;;;16.22;100.00
64292;BME280;50628;51.008;13.658;2023-08-24T04:23:35;100028.22;;;16.16;100.00
64292;BME280;50628;51.008;13.658;2023-08-24T04:28:38;100024.81;;;16.23;100.00
64292;BME280;50628;51.008;13.658;2023-08-24T04:33:40;100025.03;;;16.12;100.00
64292;BME280;50628;51.008;13.658;2023-08-24T04:38:42;100030.22;;;16.22;100.00
64292;BME280;50628;51.008;13.658;2023-08-24T04:43:45;100033.47;;;16.16;100.00
64292;BME280;50628;51.008;13.658;2023-08-24T04:48:47;100038.34;;;16.11;100.00
64292;BME280;50628;51.008;13.658;2023-08-24T04:53:49;100034.19;;;16.26;100.00
64292;BME280;50628;51.008;13.658;2023-08-24T04:58:56;100033.19;;;16.27;100.00
64292;BME280;50628;51.008;13.658;2023-08-24T05:03:58;100030.63;;;16.35;100.00
64292;BME280;50628;51.008;13.658;2023-08-24T05:09:00;100030.03;;;16.41;100.00
64292;BME280;50628;51.008;13.658;2023-08-24T05:14:03;100027.44;;;16.50;100.00
64292;BME280;50628;51.008;13.658;2023-08-24T05:19:05;100029.97;;;16.59;100.00
64292;BME280;50628;51.008;13.658;2023-08-24T05:24:07;100027.38;;;16.67;100.00
64292;BME280;50628;51.008;13.658;2023-08-24T05:29:10;100018.81;;;16.83;100.00
64292;BME280;50628;51.008;13.658;2023-08-24T05:34:12;100018.72;;;17.01;100.00
64292;BME280;50628;51.008;13.658;2023-08-24T05:39:14;100023.84;;;17.11;100.00
64292;BME280;50628;51.008;13.658;2023-08-24T05:44:17;100017.47;;;17.22;100.00
64292;BME280;50628;51.008;13.658;2023-08-24T05:49:19;100016.19;;;17.34;100.00
64292;BME280;50628;51.008;13.658;2023-08-24T05:54:21;100013.59;;;17.59;100.00
64292;BME280;50628;51.008;13.658;2023-08-24T05:59:24;100005.88;;;17.73;100.00
64292;BME280;50628;51.008;13.658;2023-08-24T06:04:26;100007.06;;;17.95;100.00
64292;BME280;50628;51.008;13.658;2023-08-24T06:09:28;99999.66;;;18.15;100.00
64292;BME280;50628;51.008;13.658;2023-08-24T06:14:31;99996.16;;;18.40;100.00
64292;BME280;50628;51.008;13.658;2023-08-24T06:19:33;99994.13;;;18.58;100.00
64292;BME280;50628;51.008;13.658;2023-08-24T06:24:35;99986.16;;;18.74;100.00
64292;BME280;50628;51.008;13.658;2023-08-24T06:29:38;99986.91;;;18.99;100.00
64292;BME280;50628;51.008;13.658;2023-08-24T06:34:43;99981.34;;;19.26;100.00
64292;BME280;50628;51.008;13.658;2023-08-24T06:39:45;99988.91;;;19.52;100.00
64292;BME280;50628;51.008;13.658;2023-08-24T06:44:48;99982.97;;;19.81;100.00
64292;BME280;50628;51.008;13.658;2023-08-24T06:49:51;99972.66;;;20.09;100.00
64292;BME280;50628;51.008;13.658;2023-08-24T06:54:53;99982.69;;;20.43;100.00
64292;BME280;50628;51.008;13.658;2023-08-24T06:59:58;99970.78;;;20.62;100.00
64292;BME280;50628;51.008;13.658;2023-08-24T07:05:00;99975.94;;;21.00;100.00
64292;BME280;50628;51.008;13.658;2023-08-24T07:10:06;99960.16;;;21.28;100.00
64292;BME280;50628;51.008;13.658;2023-08-24T07:15:10;99967.06;;;21.44;100.00
64292;BME280;50628;51.008;13.658;2023-08-24T07:20:12;99957.81;;;21.55;100.00
64292;BME280;50628;51.008;13.658;2023-08-24T07:25:14;99949.91;;;21.61;100.00
64292;BME280;50628;51.008;13.658;2023-08-24T07:30:18;99948.28;;;22.17;100.00
64292;BME280;50628;51.008;13.658;2023-08-24T07:35:20;99946.00;;;22.35;100.00
64292;BME280;50628;51.008;13.658;2023-08-24T07:40:22;99940.44;;;22.72;100.00
64292;BME280;50628;51.008;13.658;2023-08-24T07:45:25;99945.69;;;23.00;100.00
64292;BME280;50628;51.008;13.658;2023-08-24T07:50:27;99947.16;;;23.16;100.00
64292;BME280;50628;51.008;13.658;2023-08-24T07:55:29;99953.34;;;23.36;100.00
64292;BME280;50628;51.008;13.658;2023-08-24T08:00:32;99946.81;;;23.65;100.00
64292;BME280;50628;51.008;13.658;2023-08-24T08:05:35;99940.50;;;23.73;100.00
64292;BME280;50628;51.008;13.658;2023-08-24T08:10:37;99949.03;;;24.28;100.00
64292;BME280;50628;51.008;13.658;2023-08-24T08:15:40;99944.59;;;24.02;100.00
64292;BME280;50628;51.008;13.658;2023-08-24T08:20:42;99940.25;;;24.28;100.00
64292;BME280;50628;51.008;13.658;2023-08-24T08:25:44;99946.63;;;24.00;100.00
64292;BME280;50628;51.008;13.658;2023-08-24T08:30:49;99937.31;;;24.56;100.00
64292;BME280;50628;51.008;13.658;2023-08-24T08:35:51;99931.56;;;24.59;100.00
64292;BME280;50628;51.008;13.658;2023-08-24T08:40:54;99933.53;;;24.77;100.00
64292;BME280;50628;51.008;13.658;2023-08-24T08:45:59;99928.19;;;24.83;100.00
64292;BME280;50628;51.008;13.658;2023-08-24T08:51:01;99919.66;;;25.07;96.39
64292;BME280;50628;51.008;13.658;2023-08-24T08:56:04;99914.69;;;25.23;93.96
64292;BME280;50628;51.008;13.658;2023-08-24T09:01:09;99905.91;;;25.48;92.17
64292;BME280;50628;51.008;13.658;2023-08-24T09:06:11;99897.41;;;25.58;86.01
64292;BME280;50628;51.008;13.658;2023-08-24T09:11:14;99892.31;;;25.75;90.70
64292;BME280;50628;51.008;13.658;2023-08-24T09:16:19;99877.97;;;26.01;88.77
64292;BME280;50628;51.008;13.658;2023-08-24T09:21:23;99875.09;;;25.52;87.49
64292;BME280;50628;51.008;13.658;2023-08-24T09:26:29;99871.22;;;25.98;86.42
64292;BME280;50628;51.008;13.658;2023-08-24T09:31:36;99871.22;;;26.17;84.54
64292;BME280;50628;51.008;13.658;2023-08-24T09:36:39;99865.81;;;26.23;85.83
64292;BME280;50628;51.008;13.658;2023-08-24T09:41:44;99864.69;;;26.12;84.96
64292;BME280;50628;51.008;13.658;2023-08-24T09:46:49;99857.44;;;26.68;81.40
64292;BME280;50628;51.008;13.658;2023-08-24T09:51:52;99838.19;;;26.66;78.03
64292;BME280;50628;51.008;13.658;2023-08-24T09:56:58;99819.97;;;27.17;75.00
64292;BME280;50628;51.008;13.658;2023-08-24T10:02:04;99809.25;;;26.63;78.71
64292;BME280;50628;51.008;13.658;2023-08-24T10:07:13;99820.19;;;26.62;78.29
64292;BME280;50628;51.008;13.658;2023-08-24T10:12:23;99821.22;;;27.03;78.08
64292;BME280;50628;51.008;13.658;2023-08-24T10:17:31;99815.34;;;27.48;74.38
64292;BME280;50628;51.008;13.658;2023-08-24T10:22:34;99824.63;;;27.69;71.37
64292;BME280;50628;51.008;13.658;2023-08-24T10:27:36;99817.31;;;27.64;71.84
64292;BME280;50628;51.008;13.658;2023-08-24T10:32:46;99822.41;;;27.18;72.41
64292;BME280;50628;51.008;13.658;2023-08-24T10:37:52;99808.63;;;27.57;70.59
64292;BME280;50628;51.008;13.658;2023-08-24T10:42:54;99804.84;;;28.05;69.64
64292;BME280;50628;51.008;13.658;2023-08-24T10:47:58;99801.75;;;27.61;70.48
64292;BME280;50628;51.008;13.658;2023-08-24T10:53:00;99797.91;;;27.92;69.27
64292;BME280;50628;51.008;13.658;2023-08-24T10:58:02;99801.19;;;27.47;69.79
64292;BME280;50628;51.008;13.658;2023-08-24T11:03:05;99781.09;;;27.45;68.45
64292;BME280;50628;51.008;13.658;2023-08-24T11:08:07;99784.63;;;27.74;68.72
64292;BME280;50628;51.008;13.658;2023-08-24T11:13:11;99782.66;;;27.81;68.22
64292;BME280;50628;51.008;13.658;2023-08-24T11:18:22;99778.34;;;27.92;66.55
64292;BME280;50628;51.008;13.658;2023-08-24T11:23:25;99774.78;;;28.15;65.46
64292;BME280;50628;51.008;13.658;2023-08-24T11:28:28;99765.28;;;28.36;64.97
64292;BME280;50628;51.008;13.658;2023-08-24T11:33:33;99757.31;;;28.53;63.77
64292;BME280;50628;51.008;13.658;2023-08-24T11:38:36;99738.31;;;28.54;63.63
64292;BME280;50628;51.008;13.658;2023-08-24T11:43:39;99715.09;;;28.43;64.53
64292;BME280;50628;51.008;13.658;2023-08-24T11:48:43;99682.22;;;28.02;65.88
64292;BME280;50628;51.008;13.658;2023-08-24T11:53:46;99668.66;;;28.37;64.35
64292;BME280;50628;51.008;13.658;2023-08-24T11:58:49;99665.34;;;28.30;63.51
64292;BME280;50628;51.008;13.658;2023-08-24T12:03:53;99648.81;;;28.67;62.13
64292;BME280;50628;51.008;13.658;2023-08-24T12:08:55;99635.38;;;27.99;65.26
64292;BME280;50628;51.008;13.658;2023-08-24T12:13:57;99633.44;;;28.12;64.57
64292;BME280;50628;51.008;13.658;2023-08-24T12:19:01;99665.22;;;28.54;62.71
64292;BME280;50628;51.008;13.658;2023-08-24T12:24:05;99653.59;;;28.82;62.57
64292;BME280;50628;51.008;13.658;2023-08-24T12:29:08;99649.97;;;28.71;60.35
64292;BME280;50628;51.008;13.658;2023-08-24T12:34:14;99677.88;;;28.58;60.59
64292;BME280;50628;51.008;13.658;2023-08-24T12:39:16;99670.25;;;28.04;61.12
64292;BME280;50628;51.008;13.658;2023-08-24T12:44:18;99651.03;;;28.53;61.03
64292;BME280;50628;51.008;13.658;2023-08-24T12:49:22;99655.63;;;29.30;59.35
64292;BME280;50628;51.008;13.658;2023-08-24T12:54:24;99661.44;;;30.48;56.44
64292;BME280;50628;51.008;13.658;2023-08-24T12:59:26;99638.53;;;30.77;54.28
64292;BME280;50628;51.008;13.658;2023-08-24T13:04:29;99638.72;;;30.28;55.25
64292;BME280;50628;51.008;13.658;2023-08-24T13:09:32;99632.28;;;29.53;56.79
64292;BME280;50628;51.008;13.658;2023-08-24T13:14:34;99626.41;;;31.12;54.77
64292;BME280;50628;51.008;13.658;2023-08-24T13:19:38;99597.06;;;32.09;52.54
64292;BME280;50628;51.008;13.658;2023-08-24T13:24:40;99597.03;;;31.89;53.17
64292;BME280;50628;51.008;13.658;2023-08-24T13:29:44;99581.00;;;31.26;54.99
64292;BME280;50628;51.008;13.658;2023-08-24T13:34:47;99567.16;;;31.80;53.54
64292;BME280;50628;51.008;13.658;2023-08-24T13:39:49;99559.06;;;32.57;52.02
64292;BME280;50628;51.008;13.658;2023-08-24T13:44:51;99552.88;;;32.57;52.33
64292;BME280;50628;51.008;13.658;2023-08-24T13:49:54;99541.56;;;32.49;52.82
64292;BME280;50628;51.008;13.658;2023-08-24T13:54:56;99543.88;;;32.87;52.10
64292;BME280;50628;51.008;13.658;2023-08-24T13:59:59;99541.31;;;31.79;54.27
64292;BME280;50628;51.008;13.658;2023-08-24T14:05:03;99538.56;;;32.71;52.80
64292;BME280;50628;51.008;13.658;2023-08-24T14:10:07;99535.69;;;32.06;54.36
64292;BME280;50628;51.008;13.658;2023-08-24T14:15:09;99534.28;;;32.55;52.86
64292;BME280;50628;51.008;13.658;2023-08-24T14:20:13;99533.34;;;33.45;50.89
64292;BME280;50628;51.008;13.658;2023-08-24T14:25:16;99526.53;;;33.92;49.27
64292;BME280;50628;51.008;13.658;2023-08-24T14:30:18;99516.16;;;33.31;49.93
64292;BME280;50628;51.008;13.658;2023-08-24T14:35:21;99519.41;;;33.33;50.25
64292;BME280;50628;51.008;13.658;2023-08-24T14:40:23;99511.28;;;32.78;51.89
64292;BME280;50628;51.008;13.658;2023-08-24T14:45:25;99499.50;;;32.64;52.17
64292;BME280;50628;51.008;13.658;2023-08-24T14:50:28;99497.88;;;33.67;51.10
64292;BME280;50628;51.008;13.658;2023-08-24T14:55:30;99494.66;;;34.23;49.26
64292;BME280;50628;51.008;13.658;2023-08-24T15:00:32;99490.38;;;34.22;48.57
64292;BME280;50628;51.008;13.658;2023-08-24T15:05:41;99494.47;;;34.87;47.69
64292;BME280;50628;51.008;13.658;2023-08-24T15:10:43;99492.09;;;34.85;46.38
64292;BME280;50628;51.008;13.658;2023-08-24T15:15:45;99491.91;;;34.53;46.42
64292;BME280;50628;51.008;13.658;2023-08-24T15:20:48;99492.53;;;33.91;46.96
64292;BME280;50628;51.008;13.658;2023-08-24T15:25:51;99486.91;;;33.88;46.85
64292;BME280;50628;51.008;13.658;2023-08-24T15:30:53;99502.25;;;33.92;46.89
64292;BME280;50628;51.008;13.658;2023-08-24T15:35:57;99495.63;;;33.79;46.16
64292;BME280;50628;51.008;13.658;2023-08-24T15:40:59;99486.66;;;33.05;48.07
64292;BME280;50628;51.008;13.658;2023-08-24T15:46:01;99469.72;;;32.14;49.66
64292;BME280;50628;51.008;13.658;2023-08-24T15:51:04;99456.00;;;31.95;51.60
64292;BME280;50628;51.008;13.658;2023-08-24T15:56:06;99454.69;;;31.52;52.44
64292;BME280;50628;51.008;13.658;2023-08-24T16:01:08;99440.78;;;30.81;55.98
64292;BME280;50628;51.008;13.658;2023-08-24T16:06:11;99436.03;;;30.99;54.92
64292;BME280;50628;51.008;13.658;2023-08-24T16:11:13;99429.88;;;31.19;54.03
64292;BME280;50628;51.008;13.658;2023-08-24T16:16:15;99422.44;;;30.48;55.01
64292;BME280;50628;51.008;13.658;2023-08-24T16:21:18;99431.72;;;29.87;59.59
64292;BME280;50628;51.008;13.658;2023-08-24T16:26:20;99427.31;;;29.71;60.19
64292;BME280;50628;51.008;13.658;2023-08-24T16:31:22;99441.97;;;29.95;60.05
64292;BME280;50628;51.008;13.658;2023-08-24T16:36:25;99448.31;;;29.79;61.26
64292;BME280;50628;51.008;13.658;2023-08-24T16:41:27;99443.50;;;29.49;62.96
64292;BME280;50628;51.008;13.658;2023-08-24T16:46:29;99433.06;;;29.52;62.92
64292;BME280;50628;51.008;13.658;2023-08-24T16:51:33;99421.78;;;29.50;63.97
64292;BME280;50628;51.008;13.658;2023-08-24T16:56:34;99416.19;;;29.57;64.64
64292;BME280;50628;51.008;13.658;2023-08-24T17:01:37;99429.06;;;29.55;66.07
64292;BME280;50628;51.008;13.658;2023-08-24T17:06:40;99425.03;;;29.25;65.41
64292;BME280;50628;51.008;13.658;2023-08-24T17:11:42;99419.44;;;29.27;66.11
64292;BME280;50628;51.008;13.658;2023-08-24T17:16:44;99416.09;;;29.15;66.44
64292;BME280;50628;51.008;13.658;2023-08-24T17:21:47;99416.56;;;28.84;69.34
64292;BME280;50628;51.008;13.658;2023-08-24T17:26:49;99405.38;;;28.43;70.42
64292;BME280;50628;51.008;13.658;2023-08-24T17:31:51;99405.88;;;28.62;78.27
64292;BME280;50628;51.008;13.658;2023-08-24T17:36:54;99395.50;;;28.27;91.75
64292;BME280;50628;51.008;13.658;2023-08-24T17:41:56;99386.84;;;27.81;97.57
64292;BME280;50628;51.008;13.658;2023-08-24T17:46:58;99387.13;;;27.62;98.68
64292;BME280;50628;51.008;13.658;2023-08-24T17:52:02;99393.91;;;27.53;100.00
64292;BME280;50628;51.008;13.658;2023-08-24T17:57:06;99393.50;;;27.28;100.00
64292;BME280;50628;51.008;13.658;2023-08-24T18:02:08;99407.19;;;27.31;100.00
64292;BME280;50628;51.008;13.658;2023-08-24T18:07:11;99420.88;;;27.06;100.00
64292;BME280;50628;51.008;13.658;2023-08-24T18:12:13;99429.78;;;26.83;100.00
64292;BME280;50628;51.008;13.658;2023-08-24T18:17:15;99429.66;;;26.61;100.00
64292;BME280;50628;51.008;13.658;2023-08-24T18:22:18;99426.06;;;26.32;100.00
64292;BME280;50628;51.008;13.658;2023-08-24T18:27:20;99430.59;;;26.08;100.00
64292;BME280;50628;51.008;13.658;2023-08-24T18:32:22;99432.13;;;25.92;100.00
64292;BME280;50628;51.008;13.658;2023-08-24T18:37:25;99439.72;;;25.65;100.00
64292;BME280;50628;51.008;13.658;2023-08-24T18:42:27;99408.16;;;25.50;100.00
64292;BME280;50628;51.008;13.658;2023-08-24T18:47:29;99396.69;;;25.50;100.00
64292;BME280;50628;51.008;13.658;2023-08-24T18:52:32;99386.47;;;25.35;100.00
64292;BME280;50628;51.008;13.658;2023-08-24T18:57:34;99400.00;;;25.21;100.00
64292;BME280;50628;51.008;13.658;2023-08-24T19:02:36;99396.56;;;25.02;100.00
64292;BME280;50628;51.008;13.658;2023-08-24T19:07:39;99391.28;;;24.84;100.00
64292;BME280;50628;51.008;13.658;2023-08-24T19:12:41;99389.81;;;24.88;100.00
64292;BME280;50628;51.008;13.658;2023-08-24T19:17:46;99368.69;;;24.75;100.00
64292;BME280;50628;51.008;13.658;2023-08-24T19:22:50;99344.91;;;24.61;100.00
64292;BME280;50628;51.008;13.658;2023-08-24T19:27:51;99338.56;;;24.63;100.00
64292;BME280;50628;51.008;13.658;2023-08-24T19:32:53;99332.50;;;24.55;100.00
64292;BME280;50628;51.008;13.658;2023-08-24T19:37:57;99320.97;;;24.43;100.00
64292;BME280;50628;51.008;13.658;2023-08-24T19:42:59;99288.63;;;24.28;100.00
64292;BME280;50628;51.008;13.658;2023-08-24T19:48:01;99275.75;;;24.43;100.00
64292;BME280;50628;51.008;13.658;2023-08-24T19:53:06;99285.16;;;24.27;100.00
64292;BME280;50628;51.008;13.658;2023-08-24T19:58:08;99298.41;;;24.15;100.00
64292;BME280;50628;51.008;13.658;2023-08-24T20:03:10;99263.19;;;24.02;100.00
64292;BME280;50628;51.008;13.658;2023-08-24T20:08:14;99257.78;;;24.08;100.00
64292;BME280;50628;51.008;13.658;2023-08-24T20:13:15;99252.13;;;24.05;100.00
64292;BME280;50628;51.008;13.658;2023-08-24T20:18:20;99249.63;;;23.91;100.00
64292;BME280;50628;51.008;13.658;2023-08-24T20:23:24;99254.53;;;23.69;100.00
64292;BME280;50628;51.008;13.658;2023-08-24T20:28:25;99248.81;;;23.72;100.00
64292;BME280;50628;51.008;13.658;2023-08-24T20:33:31;99244.09;;;23.74;100.00
64292;BME280;50628;51.008;13.658;2023-08-24T20:38:34;99235.63;;;23.59;100.00
64292;BME280;50628;51.008;13.658;2023-08-24T20:43:36;99237.78;;;23.69;100.00
64292;BME280;50628;51.008;13.658;2023-08-24T20:48:38;99236.91;;;23.57;100.00
64292;BME280;50628;51.008;13.658;2023-08-24T20:53:41;99242.41;;;23.37;100.00
64292;BME280;50628;51.008;13.658;2023-08-24T20:58:43;99232.94;;;23.22;100.00
64292;BME280;50628;51.008;13.658;2023-08-24T21:03:45;99242.22;;;22.81;100.00
64292;BME280;50628;51.008;13.658;2023-08-24T21:08:48;99248.59;;;22.74;100.00
64292;BME280;50628;51.008;13.658;2023-08-24T21:13:50;99243.03;;;22.82;100.00
64292;BME280;50628;51.008;13.658;2023-08-24T21:18:52;99246.28;;;22.84;100.00
64292;BME280;50628;51.008;13.658;2023-08-24T21:23:55;99248.38;;;23.07;100.00
64292;BME280;50628;51.008;13.658;2023-08-24T21:28:57;99260.72;;;22.88;100.00
64292;BME280;50628;51.008;13.658;2023-08-24T21:34:00;99267.13;;;22.80;100.00
64292;BME280;50628;51.008;13.658;2023-08-24T21:39:03;99243.75;;;22.71;100.00
64292;BME280;50628;51.008;13.658;2023-08-24T21:44:05;99242.91;;;22.70;100.00
64292;BME280;50628;51.008;13.658;2023-08-24T21:49:07;99231.59;;;22.56;100.00
64292;BME280;50628;51.008;13.658;2023-08-24T21:54:11;99237.19;;;22.73;100.00
64292;BME280;50628;51.008;13.658;2023-08-24T21:59:13;99230.56;;;22.82;100.00
64292;BME280;50628;51.008;13.658;2023-08-24T22:04:15;99224.09;;;22.78;100.00
64292;BME280;50628;51.008;13.658;2023-08-24T22:09:18;99211.78;;;22.84;100.00
64292;BME280;50628;51.008;13.658;2023-08-24T22:14:20;99209.78;;;22.79;100.00
64292;BME280;50628;51.008;13.658;2023-08-24T22:19:22;99213.84;;;22.82;100.00
64292;BME280;50628;51.008;13.658;2023-08-24T22:24:25;99209.81;;;22.73;100.00
64292;BME280;50628;51.008;13.658;2023-08-24T22:29:27;99218.84;;;22.65;100.00
64292;BME280;50628;51.008;13.658;2023-08-24T22:34:31;99221.13;;;22.61;100.00
64292;BME280;50628;51.008;13.658;2023-08-24T22:39:34;99225.00;;;22.65;100.00
64292;BME280;50628;51.008;13.658;2023-08-24T22:44:36;99241.59;;;22.54;100.00
64292;BME280;50628;51.008;13.658;2023-08-24T22:49:38;99245.75;;;22.37;100.00
64292;BME280;50628;51.008;13.658;2023-08-24T22:54:41;99250.19;;;22.50;100.00
64292;BME280;50628;51.008;13.658;2023-08-24T22:59:43;99252.63;;;22.51;100.00
64292;BME280;50628;51.008;13.658;2023-08-24T23:04:45;99254.31;;;22.39;100.00
64292;BME280;50628;51.008;13.658;2023-08-24T23:09:48;99220.03;;;22.44;100.00
64292;BME280;50628;51.008;13.658;2023-08-24T23:14:51;99184.19;;;22.35;100.00
64292;BME280;50628;51.008;13.658;2023-08-24T23:19:53;99164.47;;;22.24;100.00
64292;BME280;50628;51.008;13.658;2023-08-24T23:24:56;99192.44;;;22.13;100.00
64292;BME280;50628;51.008;13.658;2023-08-24T23:29:58;99193.84;;;22.16;100.00
64292;BME280;50628;51.008;13.658;2023-08-24T23:35:02;99193.19;;;22.27;100.00
64292;BME280;50628;51.008;13.658;2023-08-24T23:40:06;99167.81;;;22.44;100.00
64292;BME280;50628;51.008;13.658;2023-08-24T23:45:10;99165.38;;;22.43;100.00
64292;BME280;50628;51.008;13.658;2023-08-24T23:50:12;99170.13;;;22.34;100.00
64292;BME280;50628;51.008;13.658;2023-08-24T23:55:15;99165.22;;;22.38;100.00
